createdAt,value
2022-12-05T00:01:42.698Z,51.50
2022-12-05T00:04:13.019Z,50.45
2022-12-05T00:06:43.540Z,50.29
2022-12-05T00:09:13.204Z,50.53
2022-12-05T00:11:42.961Z,50.48
2022-12-05T00:14:11.425Z,50.50
2022-12-05T00:16:41.025Z,50.63
2022-12-05T00:19:11.619Z,50.52
2022-12-05T00:21:39.718Z,50.61
2022-12-05T00:24:12.592Z,50.72
2022-12-05T00:26:40.348Z,50.46
2022-12-05T00:29:08.132Z,50.63
2022-12-05T00:31:36.456Z,50.38
2022-12-05T00:34:04.759Z,50.63
2022-12-05T00:36:34.311Z,50.58
2022-12-05T00:39:04.721Z,50.60
2022-12-05T00:41:33.968Z,50.67
2022-12-05T00:44:03.261Z,50.64
2022-12-05T00:46:33.034Z,50.75
2022-12-05T00:49:01.819Z,50.58
2022-12-05T00:51:31.973Z,50.79
2022-12-05T00:54:02.244Z,50.68
2022-12-05T00:56:31.229Z,50.73
2022-12-05T00:59:01.847Z,51.04
2022-12-05T01:01:32.700Z,50.67
2022-12-05T01:04:02.917Z,50.79
2022-12-05T01:06:31.059Z,50.91
2022-12-05T01:08:59.236Z,50.81
2022-12-05T01:11:28.252Z,50.74
2022-12-05T01:13:56.632Z,50.72
2022-12-05T01:16:28.887Z,50.99
2022-12-05T01:18:57.832Z,50.87
2022-12-05T01:21:25.947Z,50.58
2022-12-05T01:23:54.316Z,50.77
2022-12-05T01:26:23.206Z,50.86
2022-12-05T01:28:51.659Z,50.79
2022-12-05T01:31:23.787Z,50.98
2022-12-05T01:33:57.095Z,50.91
2022-12-05T01:36:26.054Z,50.80
2022-12-05T01:38:54.235Z,50.74
2022-12-05T01:41:24.703Z,50.87
2022-12-05T01:44:01.493Z,51.20
2022-12-05T01:46:31.524Z,50.80
2022-12-05T01:49:04.557Z,50.87
2022-12-05T01:51:33.802Z,51.90
2022-12-05T01:54:02.834Z,50.92
2022-12-05T01:56:33.583Z,50.81
2022-12-05T01:59:03.317Z,50.79
2022-12-05T02:01:31.369Z,50.85
2022-12-05T02:04:04.342Z,51.14
2022-12-05T02:06:33.985Z,51.01
2022-12-05T02:09:02.117Z,50.89
2022-12-05T02:11:32.742Z,50.94
2022-12-05T02:14:17.442Z,51.38
2022-12-05T02:16:57.173Z,51.13
2022-12-05T02:19:57.953Z,51.37
2022-12-05T02:22:55.975Z,51.35
2022-12-05T02:25:51.212Z,51.46
2022-12-05T02:28:37.854Z,51.22
2022-12-05T02:31:11.261Z,51.34
2022-12-05T02:33:45.274Z,50.95
2022-12-05T02:36:19.122Z,50.99
2022-12-05T02:38:55.157Z,51.30
2022-12-05T02:41:28.475Z,51.13
2022-12-05T02:44:01.771Z,50.99
2022-12-05T02:46:34.005Z,50.79
2022-12-05T02:49:05.333Z,51.04
2022-12-05T02:51:39.237Z,50.91
2022-12-05T02:54:13.743Z,51.06
2022-12-05T02:56:44.793Z,50.97
2022-12-05T02:59:12.628Z,50.92
2022-12-05T03:01:45.053Z,50.90
2022-12-05T03:04:14.931Z,50.99
2022-12-05T03:06:46.839Z,51.16
2022-12-05T03:09:20.642Z,51.03
2022-12-05T03:11:51.965Z,50.99
2022-12-05T03:14:24.824Z,51.09
2022-12-05T03:16:57.897Z,51.21
2022-12-05T03:19:28.514Z,51.09
2022-12-05T03:22:02.205Z,51.18
2022-12-05T03:24:31.648Z,51.14
2022-12-05T03:27:09.091Z,50.97
2022-12-05T03:29:44.154Z,51.30
2022-12-05T03:32:22.742Z,51.27
2022-12-05T03:35:03.861Z,51.31
2022-12-05T03:37:41.008Z,51.17
2022-12-05T03:40:15.801Z,51.13
2022-12-05T03:42:52.598Z,51.29
2022-12-05T03:45:28.931Z,51.32
2022-12-05T03:48:06.458Z,51.16
2022-12-05T03:50:38.523Z,51.06
2022-12-05T03:53:19.778Z,51.18
2022-12-05T03:55:55.149Z,51.17
2022-12-05T03:58:29.122Z,51.23
2022-12-05T04:00:59.488Z,51.11
2022-12-05T04:03:39.599Z,51.21
2022-12-05T04:06:14.955Z,51.28
2022-12-05T04:08:48.612Z,51.24
2022-12-05T04:11:19.701Z,51.14
2022-12-05T04:13:55.563Z,51.18
2022-12-05T04:16:43.745Z,51.27
2022-12-05T04:19:19.330Z,51.71
2022-12-05T04:21:50.046Z,51.40
2022-12-05T04:24:39.324Z,51.40
2022-12-05T04:27:23.634Z,51.54
2022-12-05T04:30:00.339Z,51.46
2022-12-05T04:32:39.501Z,51.66
2022-12-05T04:35:15.789Z,51.76
2022-12-05T04:37:46.857Z,51.32
2022-12-05T04:40:21.161Z,51.65
2022-12-05T04:42:52.489Z,51.50
2022-12-05T04:45:23.696Z,51.34
2022-12-05T04:47:55.475Z,51.29
2022-12-05T04:50:28.222Z,51.36
2022-12-05T04:53:01.926Z,51.33
2022-12-05T04:55:32.687Z,51.24
2022-12-05T04:58:07.735Z,51.46
2022-12-05T05:00:43.302Z,51.64
2022-12-05T05:03:18.009Z,51.40
2022-12-05T05:05:50.165Z,51.24
2022-12-05T05:08:19.835Z,51.17
2022-12-05T05:10:56.427Z,51.27
2022-12-05T05:13:25.026Z,51.42
2022-12-05T05:15:53.204Z,51.49
2022-12-05T05:18:21.874Z,51.71
2022-12-05T05:20:51.408Z,51.61
2022-12-05T05:23:19.285Z,51.75
2022-12-05T05:25:47.087Z,51.83
2022-12-05T05:28:14.956Z,51.93
2022-12-05T05:30:45.259Z,52.01
2022-12-05T05:33:13.415Z,52.27
2022-12-05T05:35:41.197Z,51.89
2022-12-05T05:38:10.424Z,52.15
2022-12-05T05:40:38.423Z,52.16
2022-12-05T05:43:06.411Z,52.32
2022-12-05T05:45:34.313Z,52.22
2022-12-05T05:48:02.555Z,52.22
2022-12-05T05:50:31.049Z,52.20
2022-12-05T05:52:59.427Z,52.38
2022-12-05T05:55:28.960Z,52.59
2022-12-05T05:57:56.842Z,52.64
2022-12-05T06:00:24.977Z,52.56
2022-12-05T06:02:52.980Z,52.56
2022-12-05T06:05:20.928Z,52.49
2022-12-05T06:07:48.934Z,52.65
2022-12-05T06:10:17.148Z,52.53
2022-12-05T06:12:46.899Z,52.88
2022-12-05T06:15:14.672Z,52.70
2022-12-05T06:17:42.757Z,52.40
2022-12-05T06:20:11.418Z,52.58
2022-12-05T06:22:39.427Z,52.81
2022-12-05T06:25:08.988Z,52.52
2022-12-05T06:27:36.866Z,52.59
2022-12-05T06:30:07.589Z,52.86
2022-12-05T06:32:35.606Z,52.52
2022-12-05T06:35:09.066Z,52.46
2022-12-05T06:37:38.406Z,52.62
2022-12-05T06:40:07.667Z,52.52
2022-12-05T06:42:35.498Z,52.62
2022-12-05T06:45:03.745Z,52.64
2022-12-05T06:47:33.377Z,52.66
2022-12-05T06:50:01.609Z,52.54
2022-12-05T06:52:29.513Z,52.69
2022-12-05T06:54:59.672Z,52.64
2022-12-05T06:57:29.121Z,52.89
2022-12-05T07:00:16.978Z,52.71
2022-12-05T07:02:45.256Z,52.47
2022-12-05T07:05:13.490Z,52.65
2022-12-05T07:07:41.421Z,52.55
2022-12-05T07:10:09.826Z,52.76
2022-12-05T07:12:37.812Z,52.69
2022-12-05T07:15:06.307Z,52.71
2022-12-05T07:17:37.565Z,52.62
2022-12-05T07:20:08.135Z,52.81
2022-12-05T07:22:37.360Z,52.57
2022-12-05T07:25:06.071Z,52.66
2022-12-05T07:27:34.432Z,52.63
2022-12-05T07:30:02.573Z,52.85
2022-12-05T07:32:33.313Z,52.86
2022-12-05T07:35:01.184Z,52.86
2022-12-05T07:37:30.964Z,52.88
2022-12-05T07:39:58.977Z,53.02
2022-12-05T07:42:26.973Z,52.77
2022-12-05T07:44:56.101Z,53.01
2022-12-05T07:47:23.979Z,53.08
2022-12-05T07:49:51.773Z,53.14
2022-12-05T07:52:20.990Z,52.91
2022-12-05T07:54:50.433Z,53.03
2022-12-05T07:57:18.229Z,52.79
2022-12-05T07:59:49.161Z,53.28
2022-12-05T08:02:17.221Z,53.09
2022-12-05T08:04:45.977Z,53.29
2022-12-05T08:07:14.280Z,52.97
2022-12-05T08:09:42.736Z,53.04
2022-12-05T08:12:13.656Z,53.09
2022-12-05T08:14:41.777Z,53.23
2022-12-05T08:17:10.622Z,53.04
2022-12-05T08:19:39.211Z,53.01
2022-12-05T08:22:07.028Z,53.05
2022-12-05T08:24:34.865Z,53.24
2022-12-05T08:27:02.670Z,52.96
2022-12-05T08:29:32.107Z,53.30
2022-12-05T08:31:59.932Z,53.22
2022-12-05T08:34:27.776Z,53.14
2022-12-05T08:36:55.583Z,53.16
2022-12-05T08:39:23.463Z,52.83
2022-12-05T08:41:51.385Z,52.83
2022-12-05T08:44:19.275Z,53.18
2022-12-05T08:46:50.623Z,53.33
2022-12-05T08:49:18.850Z,53.30
2022-12-05T08:51:49.274Z,53.04
2022-12-05T08:54:18.655Z,53.13
2022-12-05T08:56:46.702Z,53.26
2022-12-05T08:59:15.026Z,53.11
2022-12-05T09:01:43.920Z,53.24
2022-12-05T09:04:14.414Z,53.25
2022-12-05T09:06:42.868Z,53.29
2022-12-05T09:09:12.659Z,53.34
2022-12-05T09:11:46.692Z,53.54
2022-12-05T09:14:14.993Z,53.30
2022-12-05T09:16:45.665Z,53.32
2022-12-05T09:19:17.394Z,53.43
2022-12-05T09:21:45.868Z,53.33
2022-12-05T09:24:15.321Z,53.54
2022-12-05T09:26:43.808Z,53.43
2022-12-05T09:29:17.725Z,52.98
2022-12-05T09:31:47.443Z,53.20
2022-12-05T09:34:18.305Z,53.20
2022-12-05T09:36:55.600Z,53.25
2022-12-05T09:39:26.418Z,53.27
2022-12-05T09:42:19.139Z,53.66
2022-12-05T09:45:08.314Z,53.65
2022-12-05T09:47:45.240Z,53.54
2022-12-05T09:50:20.020Z,53.63
2022-12-05T09:52:59.668Z,54.03
2022-12-05T09:55:41.715Z,53.79
2022-12-05T09:58:20.281Z,53.79
2022-12-05T10:00:50.943Z,53.56
2022-12-05T10:03:27.263Z,53.91
2022-12-05T10:06:09.194Z,53.71
2022-12-05T10:08:50.776Z,54.22
2022-12-05T10:11:24.490Z,53.76
2022-12-05T10:14:01.492Z,53.82
2022-12-05T10:16:34.171Z,53.95
2022-12-05T10:19:07.490Z,53.87
2022-12-05T10:21:42.172Z,54.15
2022-12-05T10:24:16.207Z,54.09
2022-12-05T10:26:46.162Z,54.01
2022-12-05T10:29:23.475Z,54.17
2022-12-05T10:31:55.557Z,53.93
2022-12-05T10:34:31.127Z,54.27
2022-12-05T10:37:10.150Z,54.29
2022-12-05T10:39:38.613Z,54.02
2022-12-05T10:42:12.755Z,54.04
2022-12-05T10:44:41.267Z,54.02
2022-12-05T10:47:10.416Z,53.96
2022-12-05T10:49:39.872Z,53.86
2022-12-05T10:52:10.907Z,53.96
2022-12-05T10:54:46.208Z,54.00
2022-12-05T10:57:23.037Z,53.88
2022-12-05T10:59:51.223Z,54.01
2022-12-05T11:02:26.078Z,53.84
2022-12-05T11:04:54.526Z,53.48
2022-12-05T11:07:31.425Z,53.56
2022-12-05T11:10:01.178Z,53.72
2022-12-05T11:12:31.525Z,53.78
2022-12-05T11:15:02.905Z,53.97
2022-12-05T11:17:37.192Z,54.17
2022-12-05T11:20:37.293Z,54.56
2022-12-05T11:23:23.202Z,54.34
2022-12-05T11:25:51.197Z,53.82
2022-12-05T11:28:32.077Z,54.38
2022-12-05T11:31:02.633Z,53.91
2022-12-05T11:33:32.387Z,54.03
2022-12-05T11:36:14.485Z,54.17
2022-12-05T11:38:44.128Z,53.89
2022-12-05T11:41:32.431Z,53.91
2022-12-05T11:44:16.025Z,53.93
2022-12-05T11:47:00.167Z,53.80
2022-12-05T11:49:46.022Z,54.28
2022-12-05T11:52:26.113Z,53.94
2022-12-05T11:55:11.608Z,53.85
2022-12-05T11:57:58.229Z,53.86
2022-12-05T12:00:29.780Z,53.99
2022-12-05T12:03:19.371Z,54.20
2022-12-05T12:06:02.139Z,53.97
2022-12-05T12:08:31.461Z,53.93
2022-12-05T12:11:14.704Z,54.15
2022-12-05T12:13:58.423Z,54.24
2022-12-05T12:16:36.915Z,54.34
2022-12-05T12:19:26.967Z,54.50
2022-12-05T12:22:08.267Z,54.48
2022-12-05T12:24:52.924Z,54.49
2022-12-05T12:27:36.560Z,54.40
2022-12-05T12:30:11.686Z,54.15
2022-12-05T12:32:53.245Z,54.37
2022-12-05T12:35:29.627Z,54.38
2022-12-05T12:38:18.242Z,54.43
2022-12-05T12:40:51.451Z,54.30
2022-12-05T12:43:53.574Z,54.51
2022-12-05T12:46:37.076Z,54.55
2022-12-05T12:49:19.832Z,54.54
2022-12-05T12:52:02.341Z,54.36
2022-12-05T12:55:03.838Z,54.53
2022-12-05T12:58:00.969Z,54.44
2022-12-05T13:00:44.759Z,54.17
2022-12-05T13:03:18.326Z,54.12
2022-12-05T13:05:51.319Z,54.14
2022-12-05T13:08:29.110Z,54.31
2022-12-05T13:11:01.485Z,54.39
2022-12-05T13:13:34.484Z,54.37
2022-12-05T13:16:07.997Z,54.32
2022-12-05T13:18:36.432Z,54.17
2022-12-05T13:21:08.045Z,54.28
2022-12-05T13:23:42.156Z,54.27
2022-12-05T13:26:12.514Z,54.19
2022-12-05T13:28:48.610Z,54.11
2022-12-05T13:31:19.351Z,54.25
2022-12-05T13:33:49.614Z,54.14
2022-12-05T13:36:38.450Z,54.20
2022-12-05T13:39:25.179Z,54.09
2022-12-05T13:42:15.319Z,54.32
2022-12-05T13:44:48.053Z,54.25
2022-12-05T13:47:31.093Z,54.42
2022-12-05T13:50:05.372Z,54.33
2022-12-05T13:52:45.883Z,54.17
2022-12-05T13:55:29.520Z,54.34
2022-12-05T13:58:01.769Z,53.91
2022-12-05T14:00:37.291Z,54.11
2022-12-05T14:03:16.496Z,54.32
2022-12-05T14:05:46.821Z,54.05
2022-12-05T14:08:57.119Z,54.50
2022-12-05T14:11:25.177Z,54.11
2022-12-05T14:13:54.166Z,54.08
2022-12-05T14:16:47.695Z,54.32
2022-12-05T14:19:34.687Z,54.20
2022-12-05T14:22:15.617Z,54.23
2022-12-05T14:24:53.412Z,54.11
2022-12-05T14:27:30.959Z,54.19
2022-12-05T14:30:04.370Z,53.80
2022-12-05T14:32:35.310Z,53.80
2022-12-05T14:35:12.631Z,53.95
2022-12-05T14:37:49.708Z,53.90
2022-12-05T14:40:25.222Z,53.91
2022-12-05T14:42:55.530Z,53.84
2022-12-05T14:45:29.244Z,54.63
2022-12-05T14:47:59.896Z,53.73
2022-12-05T14:50:48.163Z,54.00
2022-12-05T14:53:24.006Z,54.01
2022-12-05T14:55:55.355Z,53.69
2022-12-05T14:58:32.618Z,53.81
2022-12-05T15:01:02.584Z,53.60
2022-12-05T15:03:34.712Z,53.89
2022-12-05T15:06:07.628Z,53.87
2022-12-05T15:08:39.748Z,54.27
2022-12-05T15:11:07.765Z,53.60
2022-12-05T15:13:37.168Z,53.73
2022-12-05T15:16:09.685Z,53.67
2022-12-05T15:18:43.664Z,53.49
2022-12-05T15:21:23.593Z,53.74
2022-12-05T15:23:59.258Z,53.65
2022-12-05T15:26:47.701Z,53.41
2022-12-05T15:29:25.224Z,53.55
2022-12-05T15:31:55.802Z,53.52
2022-12-05T15:34:29.088Z,53.69
2022-12-05T15:37:04.211Z,53.70
2022-12-05T15:39:52.582Z,53.62
2022-12-05T15:42:29.846Z,53.55
2022-12-05T15:45:17.167Z,53.76
2022-12-05T15:47:47.408Z,53.68
2022-12-05T15:50:16.967Z,53.61
2022-12-05T15:52:51.317Z,53.64
2022-12-05T15:55:26.367Z,53.65
2022-12-05T15:57:59.259Z,53.47
2022-12-05T16:00:29.618Z,53.66
2022-12-05T16:03:04.825Z,53.86
2022-12-05T16:05:36.873Z,53.44
2022-12-05T16:08:07.132Z,53.72
2022-12-05T16:10:45.734Z,53.76
2022-12-05T16:13:18.292Z,53.58
2022-12-05T16:15:52.869Z,53.66
2022-12-05T16:18:26.748Z,53.51
2022-12-05T16:20:57.578Z,53.43
2022-12-05T16:23:30.541Z,53.60
2022-12-05T16:26:19.770Z,54.00
2022-12-05T16:28:58.533Z,53.84
2022-12-05T16:31:26.603Z,53.66
2022-12-05T16:34:05.162Z,53.73
2022-12-05T16:36:33.773Z,53.56
2022-12-05T16:39:08.291Z,53.53
2022-12-05T16:41:37.996Z,53.47
2022-12-05T16:44:15.175Z,53.37
2022-12-05T16:46:46.931Z,53.54
2022-12-05T16:49:31.452Z,53.63
2022-12-05T16:52:01.587Z,53.62
2022-12-05T16:54:31.135Z,53.61
2022-12-05T16:57:06.856Z,53.56
2022-12-05T16:59:39.277Z,53.62
2022-12-05T17:02:13.363Z,53.56
2022-12-05T17:04:41.577Z,53.60
2022-12-05T17:07:09.729Z,53.60
2022-12-05T17:13:48.556Z,53.47
2022-12-05T17:16:17.334Z,53.66
2022-12-05T17:18:45.385Z,53.51
2022-12-05T17:21:16.926Z,53.45
2022-12-05T17:23:47.920Z,53.27
2022-12-05T17:26:18.021Z,53.61
2022-12-05T17:28:47.236Z,53.37
2022-12-05T17:31:17.367Z,53.54
2022-12-05T17:33:45.913Z,53.55
2022-12-05T17:36:14.775Z,53.45
2022-12-05T17:38:42.879Z,53.62
2022-12-05T17:41:16.659Z,54.04
2022-12-05T17:43:45.586Z,53.48
2022-12-05T17:46:17.433Z,53.61
2022-12-05T17:48:45.461Z,53.53
2022-12-05T17:51:14.656Z,53.63
2022-12-05T17:53:43.061Z,53.65
2022-12-05T17:56:10.962Z,53.75
2022-12-05T17:58:46.243Z,53.75
2022-12-05T18:01:19.478Z,53.80
2022-12-05T18:03:47.701Z,53.60
2022-12-05T18:06:16.840Z,53.68
2022-12-05T18:08:45.490Z,53.65
2022-12-05T18:11:14.248Z,53.82
2022-12-05T18:13:42.721Z,53.83
2022-12-05T18:16:10.924Z,53.61
2022-12-05T18:18:41.076Z,53.64
2022-12-05T18:21:10.565Z,53.31
2022-12-05T18:23:40.147Z,53.73
2022-12-05T18:26:09.940Z,53.58
2022-12-05T18:28:39.324Z,53.31
2022-12-05T18:31:09.281Z,53.64
2022-12-05T18:33:40.837Z,53.54
2022-12-05T18:36:11.465Z,53.72
2022-12-05T18:38:40.703Z,53.56
2022-12-05T18:41:08.586Z,53.62
2022-12-05T18:43:37.136Z,53.62
2022-12-05T18:46:06.921Z,53.75
2022-12-05T18:48:42.590Z,53.75
2022-12-05T18:51:16.393Z,53.99
2022-12-05T18:53:51.481Z,53.68
2022-12-05T18:56:23.115Z,53.89
2022-12-05T18:58:55.648Z,53.88
2022-12-05T19:01:24.216Z,53.82
2022-12-05T19:03:52.411Z,53.85
2022-12-05T19:06:23.432Z,53.84
2022-12-05T19:08:55.186Z,54.00
2022-12-05T19:11:23.857Z,53.99
2022-12-05T19:13:55.910Z,54.09
2022-12-05T19:16:23.941Z,53.76
2022-12-05T19:18:55.131Z,53.88
2022-12-05T19:21:25.020Z,53.97
2022-12-05T19:23:53.672Z,53.85
2022-12-05T19:26:23.301Z,53.95
2022-12-05T19:28:51.868Z,53.86
2022-12-05T19:31:21.502Z,53.70
2022-12-05T19:33:52.685Z,53.94
2022-12-05T19:36:22.698Z,53.89
2022-12-05T19:38:54.366Z,53.80
2022-12-05T19:41:24.333Z,53.88
2022-12-05T19:43:53.002Z,53.91
2022-12-05T19:46:24.863Z,54.18
2022-12-05T19:48:53.476Z,53.84
2022-12-05T19:51:21.788Z,53.94
2022-12-05T19:53:52.027Z,53.99
2022-12-05T19:56:22.008Z,53.94
2022-12-05T19:58:50.823Z,54.01
2022-12-05T20:01:23.779Z,53.75
2022-12-05T20:03:52.089Z,54.99
2022-12-05T20:06:21.360Z,53.98
2022-12-05T20:08:52.532Z,53.81
2022-12-05T20:11:24.658Z,53.96
2022-12-05T20:13:59.218Z,54.04
2022-12-05T20:16:33.793Z,54.07
2022-12-05T20:19:02.899Z,53.94
2022-12-05T20:21:33.120Z,54.11
2022-12-05T20:24:04.907Z,54.22
2022-12-05T20:26:36.117Z,54.27
2022-12-05T20:29:07.025Z,54.31
2022-12-05T20:31:37.329Z,54.24
2022-12-05T20:34:06.834Z,54.37
2022-12-05T20:36:36.092Z,54.34
2022-12-05T20:39:07.582Z,54.41
2022-12-05T20:41:36.760Z,54.21
2022-12-05T20:44:07.361Z,54.27
2022-12-05T20:46:36.909Z,54.45
2022-12-05T20:49:08.462Z,54.49
2022-12-05T20:51:36.534Z,54.21
2022-12-05T20:54:07.460Z,54.33
2022-12-05T20:56:36.354Z,54.16
2022-12-05T20:59:11.694Z,54.43
2022-12-05T21:02:33.283Z,54.61
2022-12-05T21:05:03.179Z,54.35
2022-12-05T21:07:36.514Z,54.56
2022-12-05T21:10:08.947Z,54.55
2022-12-05T21:12:45.516Z,54.47
2022-12-05T21:15:15.271Z,54.48
2022-12-05T21:17:45.850Z,54.06
2022-12-05T21:20:18.176Z,54.82
2022-12-05T21:22:46.904Z,54.36
2022-12-05T21:25:34.040Z,54.36
2022-12-05T21:28:05.172Z,54.22
2022-12-05T21:30:37.255Z,54.44
2022-12-05T21:33:06.243Z,54.50
2022-12-05T21:35:34.195Z,54.54
2022-12-05T21:38:02.542Z,54.41
2022-12-05T21:40:31.785Z,54.67
2022-12-05T21:42:59.644Z,54.42
2022-12-05T21:45:27.597Z,54.62
2022-12-05T21:48:15.344Z,54.41
2022-12-05T21:50:48.541Z,54.83
2022-12-05T21:53:16.776Z,54.57
2022-12-05T21:55:46.306Z,54.73
2022-12-05T21:58:15.305Z,54.24
2022-12-05T22:00:43.930Z,54.35
2022-12-05T22:03:15.246Z,54.67
2022-12-05T22:05:44.470Z,54.45
2022-12-05T22:08:13.073Z,54.48
2022-12-05T22:10:41.214Z,54.33
2022-12-05T22:13:10.647Z,54.58
2022-12-05T22:15:39.102Z,54.51
2022-12-05T22:18:07.280Z,54.44
2022-12-05T22:20:35.255Z,54.61
2022-12-05T22:23:03.278Z,54.47
2022-12-05T22:25:33.169Z,54.33
2022-12-05T22:28:05.489Z,54.44
2022-12-05T22:30:37.936Z,54.58
2022-12-05T22:33:05.946Z,54.58
2022-12-05T22:35:36.006Z,54.48
2022-12-05T22:38:04.876Z,54.53
2022-12-05T22:40:33.011Z,54.52
2022-12-05T22:43:01.033Z,54.39
2022-12-05T22:45:47.020Z,54.72
2022-12-05T22:48:16.330Z,54.78
2022-12-05T22:50:48.636Z,54.63
2022-12-05T22:53:16.695Z,54.67
2022-12-05T22:55:44.618Z,54.47
2022-12-05T22:58:12.665Z,54.46
2022-12-05T23:01:33.458Z,54.88
2022-12-05T23:04:13.568Z,54.86
2022-12-05T23:07:26.834Z,54.66
2022-12-05T23:17:06.432Z,55.20
2022-12-05T23:20:34.769Z,55.25
2022-12-05T23:23:27.212Z,55.42
2022-12-05T23:26:44.654Z,54.87
2022-12-05T23:29:57.461Z,55.06
2022-12-05T23:32:56.284Z,54.79
2022-12-05T23:35:34.586Z,54.80
2022-12-05T23:38:09.664Z,55.06
2022-12-05T23:40:46.752Z,54.77
2022-12-05T23:43:19.125Z,54.60
2022-12-05T23:45:47.833Z,55.00
2022-12-05T23:48:15.629Z,54.77
2022-12-05T23:50:43.511Z,54.84
2022-12-05T23:53:12.466Z,54.75
2022-12-05T23:55:41.826Z,54.76
2022-12-05T23:58:09.758Z,54.92
